Wednesday, November 22, 2017, 8:01 AM EST
Back to Local

KBHB, Bar Harbor, Hancock County-bar Harbor Airport

Location: Ellsworth, ME, United States Lat: 44.45
Local Time: 8:01 AM EST (13:01 GMT) Lon: -68.367
Time Zone: US/Eastern Elev: 82 ft

Show me the last for .
Show Coded

Time T Td Feel RH Dir Speed Gust Alt SLP Vis Weather Sky Remarks
2017-11-22 06:56 43 40 40 88 200° 5 - 30.00 30.01 10 CLR 6-hr Min Temp (7am): 41.0°F
6-hr Max Temp (7am): 48.9°F
2017-11-22 05:56 43 41 41 92 200° 3 - 30.00 30.01 10 CLR None
2017-11-22 04:56 45 41 44 85 210° 3 - 30.00 30.02 10 CLR None
2017-11-22 03:56 45 41 44 85 220° 3 - 29.99 30.00 10 CLR None
2017-11-22 01:56 47 40 42 76 210° 10 - 29.99 30.00 10 CLR None
2017-11-22 00:56 49 41 44 73 220° 12 - 29.99 30.00 10 CLR 6-hr Min Temp (1am): 48.9°F
6-hr Max Temp (1am): 51.1°F
2017-11-21 23:56 49 41 44 73 210° 14 - 29.99 30.00 10 CLR None
2017-11-21 22:56 50 41 44 71 200° 12 17 29.99 30.00 10 CLR None
2017-11-21 21:56 51 41 - 68 220° 13 23 29.99 30.00 10 CLR None
2017-11-21 20:56 51 42 - 71 220° 13 23 29.98 29.99 10 CLR None
2017-11-21 19:56 51 43 - 73 210° 18 24 29.96 29.97 10 CLR None
2017-11-21 18:56 51 42 - 71 210° 16 23 29.97 29.98 10 CLR 6-hr Min Temp (7pm): 48.9°F
6-hr Max Temp (7pm): 51.1°F
24-hr Min Temp (7pm): 16.0°F
24-hr Max Temp (7pm): 51.1°F
2017-11-21 17:56 50 43 45 76 210° 15 - 29.97 29.98 10 CLR None
2017-11-21 16:56 50 42 44 74 210° 18 - 29.96 29.97 10 CLR None
2017-11-21 15:56 49 41 41 73 200° 18 24 29.97 29.98 10 CLR None
2017-11-21 14:56 50 36 43 58 220° 15 24 29.98 29.99 10 CLR None
2017-11-21 13:56 49 38 41 65 200° 17 25 29.98 29.99 10 CLR None
2017-11-21 12:56 49 37 41 63 200° 17 28 29.99 30.01 10 CLR 6-hr Min Temp (1pm): 21.0°F
6-hr Max Temp (1pm): 48.9°F
2017-11-21 11:56 49 37 41 63 200° 18 26 30.01 30.02 10 FEW025 None
2017-11-21 10:56 40 29 38 64 Variable 3 - 30.06 30.07 10 CLR None
2017-11-21 08:56 28 18 23 65 150° 5 - 30.12 30.13 10 CLR None

Support USWX by starting your Amazon purchase here.